Rechitsa, Belarus
Current Conditions -  °F | °C
As of 8:00 PM on Sunday 23 Nov 2014 (Local Time) from UMGG Reporting Station
Haze Haze  
Wind Chill: 23°   Ceiling: Unl
Heat Index: 23°   Visibility: 2.2mi
Dew Point: 23°   Wind: 2mph
Humidity: 100%   Direction: NA
Pressure: 30.5"   Gusts: NA
Location:  52.37°N, 30.4°E
Report Text: UMGG 231800Z VRB01MPS 3600 BR NSC M05/M05 Q1033 R10/CLRD//TEMPO 2500
Loading
Personal Weather Stations






























Interactive Weather Map New forecast layout! Learn more

10-Day Weather Forecast

Advertisements
Track Severe Weather on mobile